You are not logged in, Click here to log in
ICAO: RJNS Country: 靜岡縣島田市與牧之原市
Latitude: 34.7953 Longitude: 138.18
Total Arrivals: 4 Total Departures: 6
Latest Arrival: NH1264 (ROAH-RJNS)James. LIU Latest Departure: CI169 (RJNS-RCTP)James. LIU
Scenery:
METAR : RJNS 180100Z 10004KT 050V160 9999 FEW015 BKN025 BKN150 30/25 Q1008

富士山靜岡空港FSZ